Time;durP1;ratioP1;P1;durP2;ratioP2;P2;SDS_P1;SDS_P2;PMS_P1;PMS_P2;Temp;Humidity;BMP_temperature;BMP_pressure;BME280_temperature;BME280_humidity;BME280_pressure;Samples;Min_cycle;Max_cycle;Signal;HPM_P1;HPM_P2
2022/05/18 00:02:21;;;;;;;3.42;2.28;;;;;;;21.78;56.29;100977.16;4914776;29;20059;-66
2022/05/18 00:04:49;;;;;;;4.15;2.38;;;;;;;21.80;55.84;100986.78;4914824;29;20048;-66
2022/05/18 00:07:17;;;;;;;2.33;2.08;;;;;;;21.79;56.34;100984.38;4916079;29;20059;-66
2022/05/18 00:09:45;;;;;;;3.22;2.40;;;;;;;21.81;55.81;100982.03;4924357;29;20055;-66
2022/05/18 00:12:13;;;;;;;2.15;1.92;;;;;;;21.80;55.63;100986.78;4937455;29;20059;-66
2022/05/18 00:14:41;;;;;;;3.42;2.33;;;;;;;21.81;55.82;100987.59;4923350;29;20504;-66
2022/05/18 00:17:09;;;;;;;3.15;2.15;;;;;;;21.76;56.33;100991.44;4917852;29;20650;-67
2022/05/18 00:19:37;;;;;;;3.78;2.47;;;;;;;21.79;56.24;100978.81;4918703;29;20044;-66
2022/05/18 00:22:05;;;;;;;3.88;2.40;;;;;;;21.74;56.49;100977.03;4918069;29;20055;-66
2022/05/18 00:24:33;;;;;;;3.53;2.83;;;;;;;21.71;56.29;100977.75;4917697;29;20063;-66
2022/05/18 00:27:04;;;;;;;3.75;2.30;;;;;;;21.72;56.76;100985.75;4933175;29;20056;-66
2022/05/18 00:29:33;;;;;;;3.70;2.45;;;;;;;21.66;56.87;100987.13;4936630;29;20510;-66
2022/05/18 00:32:01;;;;;;;2.60;2.28;;;;;;;21.75;56.24;100990.63;4937343;29;20525;-66
2022/05/18 00:34:29;;;;;;;3.72;2.50;;;;;;;21.78;56.61;100988.28;4937291;29;20051;-66
2022/05/18 00:36:57;;;;;;;3.50;2.40;;;;;;;21.67;56.84;100983.16;4918597;29;20052;-66
2022/05/18 00:39:25;;;;;;;2.83;2.50;;;;;;;21.67;56.90;100983.16;4928103;29;20487;-66
2022/05/18 00:41:52;;;;;;;3.40;2.70;;;;;;;21.62;56.97;100986.19;4928935;29;20055;-66
2022/05/18 00:44:21;;;;;;;2.63;2.15;;;;;;;21.54;58.10;100987.91;4918076;29;20055;-66
2022/05/18 00:46:50;;;;;;;6.18;2.78;;;;;;;21.56;58.19;100985.56;4925817;29;20066;-66
2022/05/18 00:49:41;;;;;;;5.55;2.38;;;;;;;21.58;57.73;100976.88;4936213;29;20519;-66
2022/05/18 00:52:11;;;;;;;3.83;3.28;;;;;;;21.52;58.40;100978.25;4936089;29;20059;-66
2022/05/18 00:54:40;;;;;;;4.18;2.95;;;;;;;21.55;58.49;100988.72;4931499;29;20063;-66
2022/05/18 00:57:14;;;;;;;4.30;2.75;;;;;;;21.56;58.42;100976.41;4921123;29;20044;-66
2022/05/18 00:59:50;;;;;;;3.40;3.10;;;;;;;21.46;59.17;100986.84;4936320;29;20495;-66
2022/05/18 01:02:21;;;;;;;5.03;2.95;;;;;;;21.41;57.87;100987.03;4923712;29;20056;-66
2022/05/18 01:04:52;;;;;;;4.78;3.03;;;;;;;21.38;58.23;100987.75;4917472;29;20086;-66
2022/05/18 01:07:25;;;;;;;4.43;2.75;;;;;;;21.40;58.11;100979.84;4917032;29;20060;-66
2022/05/18 01:09:54;;;;;;;3.85;2.50;;;;;;;21.34;57.92;100982.06;4917159;29;20048;-66
2022/05/18 01:12:22;;;;;;;4.30;2.58;;;;;;;21.28;58.16;100982.63;4917395;29;20059;-66
2022/05/18 01:14:56;;;;;;;5.97;2.58;;;;;;;21.37;58.02;100982.53;4915571;29;20058;-66
2022/05/18 01:17:31;;;;;;;2.78;2.42;;;;;;;21.31;58.16;100981.94;4936714;29;20047;-66
2022/05/18 01:20:04;;;;;;;3.03;2.72;;;;;;;21.33;58.55;100985.19;4935794;29;20525;-66
2022/05/18 01:22:42;;;;;;;;;;;;;;;21.45;59.45;100982.44;4936853;29;20051;-66
2022/05/18 01:25:42;;;;;;;3.75;2.90;;;;;;;21.20;61.06;100976.81;4936469;29;19923;-66
2022/05/18 01:28:11;;;;;;;3.53;3.00;;;;;;;21.02;64.24;100980.91;4935499;29;20066;-66
2022/05/18 01:30:46;;;;;;;3.35;2.92;;;;;;;21.00;65.12;100984.03;4935407;29;20047;-66
2022/05/18 01:33:17;;;;;;;5.07;2.83;;;;;;;20.85;65.25;100981.88;4935253;29;20058;-66
2022/05/18 01:35:47;;;;;;;5.38;3.50;;;;;;;20.75;66.17;100971.94;4936454;29;20048;-66
2022/05/18 01:38:17;;;;;;;3.58;3.25;;;;;;;20.63;66.73;100983.84;4936193;29;20058;-66
2022/05/18 01:40:53;;;;;;;3.55;3.22;;;;;;;20.58;66.48;100978.47;4935489;29;20064;-66
2022/05/18 01:43:38;;;;;;;5.47;3.30;;;;;;;20.40;66.61;100978.59;4935252;29;20066;-66
2022/05/18 01:46:10;;;;;;;5.47;3.30;;;;;;;20.45;65.91;100980.38;4935067;29;20058;-66
2022/05/18 01:48:41;;;;;;;6.18;3.53;;;;;;;20.47;65.76;100983.63;4935454;29;20059;-66
2022/05/18 01:51:11;;;;;;;5.20;3.28;;;;;;;20.32;66.18;100991.41;4921403;29;20059;-66
2022/05/18 01:53:39;;;;;;;4.25;2.80;;;;;;;20.20;66.82;100985.75;4915965;29;20064;-66
2022/05/18 01:56:08;;;;;;;3.20;2.90;;;;;;;20.13;66.85;100983.50;4919366;29;20052;-66
2022/05/18 01:58:36;;;;;;;4.15;3.35;;;;;;;20.02;68.03;100991.41;4931429;29;20063;-66
2022/05/18 02:01:04;;;;;;;5.57;3.15;;;;;;;20.13;66.80;100987.09;4931768;29;20055;-66
2022/05/18 02:03:32;;;;;;;3.15;2.72;;;;;;;20.19;66.30;100987.72;4916229;29;20056;-65
2022/05/18 02:06:00;;;;;;;5.45;3.05;;;;;;;20.16;66.89;100993.13;4916624;29;20488;-66
2022/05/18 02:08:28;;;;;;;5.03;3.08;;;;;;;20.16;66.35;100995.91;4916724;29;20056;-66
2022/05/18 02:10:56;;;;;;;3.92;2.85;;;;;;;20.05;66.47;100996.31;4915715;29;20063;-66
2022/05/18 02:13:24;;;;;;;4.57;3.20;;;;;;;20.07;66.22;100996.78;4930325;29;20055;-66
2022/05/18 02:15:52;;;;;;;4.07;3.17;;;;;;;20.16;65.67;100996.72;4916499;29;20395;-66
2022/05/18 02:18:20;;;;;;;6.45;2.90;;;;;;;20.26;65.35;101001.91;4899052;29;20503;-66
2022/05/18 02:20:48;;;;;;;3.00;2.70;;;;;;;20.35;64.58;100999.06;4916463;29;20372;-66
2022/05/18 02:23:16;;;;;;;3.03;2.70;;;;;;;20.25;64.55;101002.25;4916065;29;20063;-66
2022/05/18 02:25:44;;;;;;;3.35;2.67;;;;;;;20.20;65.29;100999.66;4915630;29;20059;-66
2022/05/18 02:28:12;;;;;;;4.03;3.03;;;;;;;20.06;66.31;100999.88;4915553;29;20067;-66
2022/05/18 02:30:40;;;;;;;3.28;2.97;;;;;;;20.00;66.83;100993.72;4915777;29;20055;-66
2022/05/18 02:33:08;;;;;;;5.55;2.90;;;;;;;20.05;66.28;101006.59;4915735;29;20048;-66
2022/05/18 02:35:40;;;;;;;3.88;3.00;;;;;;;20.01;66.57;101000.91;4915660;29;20520;-66
2022/05/18 02:38:09;;;;;;;4.05;3.03;;;;;;;19.90;67.07;101002.38;4915530;29;20075;-66
2022/05/18 02:40:39;;;;;;;5.95;3.05;;;;;;;19.87;66.86;101004.69;4915623;29;20056;-66
2022/05/18 02:43:07;;;;;;;3.45;2.65;;;;;;;19.79;67.85;101016.63;4915711;29;20133;-66
2022/05/18 02:45:35;;;;;;;5.38;3.25;;;;;;;19.78;67.47;101015.00;4915150;29;20052;-66
2022/05/18 02:48:05;;;;;;;4.72;3.30;;;;;;;19.80;68.21;101009.13;4899214;29;20056;-66
2022/05/18 02:50:33;;;;;;;3.47;3.00;;;;;;;19.77;68.03;101007.00;4907931;29;20051;-66
2022/05/18 02:53:01;;;;;;;7.60;2.97;;;;;;;19.92;66.94;101012.03;4934129;29;20518;-66
2022/05/18 02:58:15;;;;;;;5.28;3.50;;;;;;;20.06;66.40;101014.59;4934267;29;20060;-66
2022/05/18 03:00:44;;;;;;;4.70;3.28;;;;;;;20.07;66.55;101012.63;4934896;29;20483;-66
2022/05/18 03:03:12;;;;;;;4.43;3.15;;;;;;;19.93;67.33;101015.59;4934878;29;20052;-66
2022/05/18 03:05:40;;;;;;;3.70;2.97;;;;;;;19.76;68.19;101014.53;4934286;29;20059;-66
2022/05/18 03:08:08;;;;;;;4.22;3.28;;;;;;;19.67;68.48;101019.28;4933676;29;20051;-66
2022/05/18 03:10:36;;;;;;;3.95;2.88;;;;;;;19.63;68.86;101021.09;4934164;29;20048;-66
2022/05/18 03:13:04;;;;;;;3.05;2.72;;;;;;;19.57;69.08;101026.03;4934206;29;20052;-66
2022/05/18 03:15:32;;;;;;;3.83;3.45;;;;;;;19.64;69.41;101018.00;4934855;29;20075;-66
2022/05/18 03:18:00;;;;;;;4.47;2.90;;;;;;;19.60;69.70;101030.94;4933583;29;20499;-66
2022/05/18 03:26:15;;;;;;;4.00;3.30;;;;;;;19.74;69.86;101030.69;4933995;29;20059;-66
2022/05/18 03:28:46;;;;;;;4.45;2.88;;;;;;;19.69;69.86;101036.41;4933845;29;20058;-66
2022/05/18 03:31:15;;;;;;;3.83;3.15;;;;;;;19.72;70.08;101036.59;4917613;29;20056;-66
2022/05/18 03:33:44;;;;;;;6.18;3.22;;;;;;;19.80;69.41;101046.03;4933676;29;20059;-66
2022/05/18 03:36:13;;;;;;;5.63;3.47;;;;;;;19.65;70.24;101044.59;4934656;29;20063;-66
2022/05/18 03:38:43;;;;;;;3.95;3.30;;;;;;;19.57;70.64;101043.50;4934671;29;20055;-66
2022/05/18 03:41:11;;;;;;;5.05;3.30;;;;;;;19.46;71.01;101051.34;4934700;29;20487;-66
2022/05/18 03:43:40;;;;;;;4.47;3.38;;;;;;;19.43;71.89;101053.97;4935215;29;20047;-66
2022/05/18 03:46:09;;;;;;;8.05;3.70;;;;;;;19.25;73.36;101058.75;4937401;29;20059;-66
2022/05/18 03:48:38;;;;;;;4.25;3.53;;;;;;;19.23;73.31;101061.00;4937699;29;20168;-66
2022/05/18 03:51:08;;;;;;;4.57;3.45;;;;;;;19.21;74.87;101069.66;4923762;29;20052;-66
2022/05/18 03:53:37;;;;;;;3.45;3.05;;;;;;;19.23;74.65;101072.94;4918585;29;20507;-66
2022/05/18 03:56:05;;;;;;;5.53;3.65;;;;;;;19.39;73.64;101077.97;4918567;29;20045;-66
2022/05/18 03:58:33;;;;;;;3.88;3.40;;;;;;;19.45;72.59;101085.78;4918397;29;20059;-66
2022/05/18 04:01:01;;;;;;;4.57;2.75;;;;;;;19.59;72.34;101082.84;4918179;29;20048;-66
2022/05/18 04:03:29;;;;;;;4.45;3.42;;;;;;;19.66;71.63;101085.13;4918320;29;20083;-65
2022/05/18 04:05:57;;;;;;;6.55;3.05;;;;;;;19.69;70.92;101094.72;4918050;29;20048;-66
2022/05/18 04:08:26;;;;;;;5.68;3.15;;;;;;;19.76;70.58;101099.78;4918239;29;20052;-66
2022/05/18 04:10:55;;;;;;;5.00;3.55;;;;;;;19.90;69.64;101105.16;4918871;29;20044;-66
2022/05/18 04:13:26;;;;;;;4.53;3.03;;;;;;;19.90;70.27;101108.75;4918348;29;20064;-66
2022/05/18 04:15:55;;;;;;;3.65;2.90;;;;;;;19.90;70.23;101111.53;4918729;29;20044;-66
2022/05/18 04:18:23;;;;;;;6.22;3.45;;;;;;;20.04;69.18;101116.88;4918694;29;20059;-66
2022/05/18 04:20:54;;;;;;;6.70;4.00;;;;;;;20.10;69.36;101110.00;4918742;29;20063;-66
2022/05/18 04:23:25;;;;;;;6.22;3.92;;;;;;;20.23;69.15;101112.91;4918170;29;20068;-66
2022/05/18 04:25:53;;;;;;;4.22;3.25;;;;;;;20.32;69.28;101126.78;4917738;29;20069;-66
2022/05/18 04:28:21;;;;;;;8.18;4.63;;;;;;;20.44;69.82;101128.84;4917470;29;20048;-66
2022/05/18 04:30:50;;;;;;;5.50;4.22;;;;;;;20.51;71.14;101135.50;4917419;29;20075;-66
2022/05/18 04:33:20;;;;;;;6.57;5.13;;;;;;;20.56;72.63;101142.84;4918663;29;20056;-66
2022/05/18 04:35:50;;;;;;;7.10;4.72;;;;;;;20.62;73.86;101144.28;4928556;29;20058;-66
2022/05/18 04:38:20;;;;;;;10.13;6.65;;;;;;;20.60;75.84;101149.38;4931696;29;20048;-66
2022/05/18 04:40:56;;;;;;;9.32;6.30;;;;;;;20.61;76.33;101156.56;4935303;29;20491;-66
2022/05/18 04:43:24;;;;;;;11.75;6.97;;;;;;;20.70;76.78;101161.25;4917467;29;20059;-66
2022/05/18 04:45:55;;;;;;;10.07;6.53;;;;;;;20.74;77.24;101162.22;4917169;29;20125;-66
2022/05/18 04:48:24;;;;;;;8.52;5.90;;;;;;;20.73;77.37;101163.38;4917208;29;20052;-66
2022/05/18 04:50:53;;;;;;;9.13;6.43;;;;;;;20.62;77.86;101171.28;4917145;29;20083;-67
2022/05/18 04:53:22;;;;;;;9.50;6.45;;;;;;;20.89;75.98;101178.38;4920966;29;20066;-72
2022/05/18 04:55:51;;;;;;;7.25;5.78;;;;;;;21.17;75.08;101188.97;4885853;29;20059;-72
2022/05/18 04:58:19;;;;;;;8.75;5.95;;;;;;;21.31;74.55;101187.91;4870223;29;20507;-72
2022/05/18 05:00:57;;;;;;;8.60;6.28;;;;;;;21.63;72.86;101193.88;4918024;29;20496;-71
2022/05/18 05:03:25;;;;;;;9.52;6.03;;;;;;;21.61;73.21;101179.47;4900508;29;20059;-72
2022/05/18 05:06:04;;;;;;;11.07;6.20;;;;;;;21.73;73.14;101187.91;4933178;29;20044;-72
2022/05/18 05:08:34;;;;;;;10.95;6.05;;;;;;;21.89;72.52;101195.63;4930074;29;20054;-72
2022/05/18 05:11:03;;;;;;;10.38;6.10;;;;;;;21.68;74.14;101185.31;4919139;29;20459;-72
2022/05/18 05:13:32;;;;;;;7.68;5.00;;;;;;;21.92;72.81;101194.94;4921877;29;20055;-72
2022/05/18 05:16:05;;;;;;;8.38;6.05;;;;;;;21.94;73.04;101202.97;4936762;29;20055;-72
2022/05/18 05:18:34;;;;;;;7.95;5.68;;;;;;;22.15;72.47;101209.28;4936772;29;20048;-72
2022/05/18 05:21:02;;;;;;;13.60;6.22;;;;;;;22.26;72.66;101215.25;4936708;29;20079;-71
2022/05/18 05:23:32;;;;;;;7.15;5.68;;;;;;;22.15;72.87;101222.44;4921127;29;20051;-71
2022/05/18 05:26:00;;;;;;;9.02;5.65;;;;;;;22.26;72.44;101218.03;4936305;29;20043;-71
2022/05/18 05:28:28;;;;;;;8.77;5.53;;;;;;;22.25;71.93;101221.97;4955467;29;20047;-70
2022/05/18 05:31:08;;;;;;;8.98;6.38;;;;;;;22.19;73.17;101217.78;4937990;29;20058;-71
2022/05/18 05:33:37;;;;;;;10.35;5.88;;;;;;;22.49;71.85;101223.16;4938180;29;20047;-70
2022/05/18 05:36:06;;;;;;;7.88;5.60;;;;;;;22.65;71.45;101234.53;4955423;29;20051;-70
2022/05/18 05:38:35;;;;;;;7.35;5.65;;;;;;;22.82;70.96;101224.28;4955473;29;20051;-70
2022/05/18 05:41:04;;;;;;;6.90;5.38;;;;;;;22.87;69.95;101235.22;4912628;29;20064;-71
2022/05/18 05:43:32;;;;;;;8.50;5.85;;;;;;;22.92;69.95;101245.34;4935251;29;20048;-71
2022/05/18 05:46:06;;;;;;;10.30;6.07;;;;;;;22.92;69.99;101240.56;4936025;29;20047;-72
2022/05/18 05:48:35;;;;;;;10.50;6.38;;;;;;;23.05;69.18;101230.22;4935152;29;20129;-71
2022/05/18 05:51:05;;;;;;;10.38;6.03;;;;;;;23.08;69.45;101237.88;4935474;29;20040;-72
2022/05/18 05:53:33;;;;;;;8.32;5.47;;;;;;;23.28;68.71;101252.06;4917938;29;20411;-71
2022/05/18 05:56:01;;;;;;;10.15;6.47;;;;;;;23.34;68.50;101256.28;4935976;29;20044;-71
2022/05/18 05:58:33;;;;;;;8.80;6.30;;;;;;;23.35;68.11;101252.31;4934998;29;20067;-72
2022/05/18 06:01:06;;;;;;;11.30;6.50;;;;;;;23.30;68.86;101252.50;4933788;29;20059;-71
2022/05/18 06:03:35;;;;;;;8.68;5.57;;;;;;;23.45;68.18;101262.16;4934888;29;20387;-72
2022/05/18 06:06:04;;;;;;;9.65;5.80;;;;;;;23.54;67.81;101270.41;4934916;29;20097;-72
2022/05/18 06:08:32;;;;;;;7.38;5.28;;;;;;;23.70;67.39;101267.69;4935481;29;20499;-71
2022/05/18 06:11:01;;;;;;;9.02;5.38;;;;;;;23.69;66.94;101274.44;4935050;29;20055;-71
2022/05/18 06:13:29;;;;;;;7.78;5.60;;;;;;;23.69;66.85;101276.41;4934425;29;20380;-72
2022/05/18 06:15:58;;;;;;;8.07;5.32;;;;;;;23.87;66.28;101299.31;4934361;29;20415;-71
2022/05/18 06:18:30;;;;;;;7.55;5.18;;;;;;;23.92;66.03;101293.47;4934433;29;20048;-72
2022/05/18 06:20:59;;;;;;;8.43;4.97;;;;;;;23.93;64.83;101291.47;4934545;29;20062;-72
2022/05/18 06:23:27;;;;;;;8.90;5.15;;;;;;;23.66;65.12;101300.28;4934116;29;20051;-71
2022/05/18 06:26:02;;;;;;;10.38;5.35;;;;;;;23.76;65.11;101290.63;4934363;29;20047;-71
2022/05/18 06:28:30;;;;;;;7.38;5.38;;;;;;;23.97;64.02;101310.00;4934325;29;20059;-72
2022/05/18 06:30:58;;;;;;;6.90;4.95;;;;;;;24.07;63.44;101310.66;4935374;29;20380;-71
2022/05/18 06:33:26;;;;;;;9.38;4.43;;;;;;;23.98;62.79;101306.03;4934399;29;20060;-71
2022/05/18 06:35:54;;;;;;;8.43;5.18;;;;;;;24.08;61.46;101321.53;4934339;29;20513;-71
2022/05/18 06:38:23;;;;;;;7.72;4.93;;;;;;;23.93;60.97;101320.25;4934327;29;20054;-71
2022/05/18 06:43:39;;;;;;;5.38;3.75;;;;;;;23.97;61.29;101321.19;4934369;29;20055;-72
2022/05/18 06:46:07;;;;;;;4.75;3.90;;;;;;;23.94;60.70;101327.47;4901854;29;20435;-71
2022/05/18 06:48:35;;;;;;;5.72;3.90;;;;;;;24.01;60.50;101332.47;4934092;29;20052;-71
2022/05/18 06:51:25;;;;;;;5.38;3.50;;;;;;;24.06;59.46;101332.22;4934237;29;20051;-71
2022/05/18 06:53:54;;;;;;;6.93;3.17;;;;;;;24.18;57.78;101331.38;4934299;29;20403;-72
2022/05/18 06:56:28;;;;;;;4.60;3.65;;;;;;;24.41;57.57;101348.44;4934471;29;20056;-72
2022/05/18 06:58:59;;;;;;;4.18;3.03;;;;;;;24.33;56.36;101349.38;4934223;29;20054;-71
2022/05/18 07:01:28;;;;;;;4.20;2.35;;;;;;;24.40;54.64;101332.78;4934267;29;20054;-72
2022/05/18 07:03:57;;;;;;;4.20;2.83;;;;;;;24.64;54.12;101344.22;4934227;29;20171;-71
2022/05/18 07:06:31;;;;;;;2.80;2.45;;;;;;;24.78;53.22;101339.00;4934930;29;20514;-72
2022/05/18 07:08:59;;;;;;;4.05;2.22;;;;;;;24.54;52.21;101353.97;4934335;29;20048;-71
2022/05/18 07:11:27;;;;;;;5.05;1.90;;;;;;;24.68;52.39;101359.94;4933971;29;20458;-71
2022/05/18 07:13:58;;;;;;;4.65;2.10;;;;;;;24.68;49.93;101354.34;4934018;29;20059;-72
2022/05/18 07:16:27;;;;;;;4.22;1.80;;;;;;;24.60;50.10;101352.53;4935118;29;20048;-72
2022/05/18 07:18:55;;;;;;;2.88;1.95;;;;;;;24.69;50.28;101338.38;4934526;29;20074;-72
2022/05/18 07:21:25;;;;;;;3.53;1.98;;;;;;;24.80;50.48;101352.63;4937920;29;20055;-72
2022/05/18 07:23:54;;;;;;;2.53;2.10;;;;;;;24.79;49.94;101359.41;4937739;29;20058;-72
2022/05/18 07:26:25;;;;;;;2.17;1.98;;;;;;;24.75;49.65;101361.28;4938380;29;20480;-72
2022/05/18 07:28:53;;;;;;;2.25;1.90;;;;;;;24.64;47.64;101361.81;4937396;29;20047;-72
2022/05/18 07:31:22;;;;;;;2.42;1.30;;;;;;;24.60;47.43;101366.50;4938661;29;20487;-72
2022/05/18 07:34:10;;;;;;;1.52;1.40;;;;;;;24.82;48.09;101364.31;4937242;29;20384;-59
2022/05/18 07:36:38;;;;;;;4.22;1.35;;;;;;;24.95;47.63;101368.66;4935531;29;20075;-59
2022/05/18 07:39:06;;;;;;;2.28;1.30;;;;;;;25.08;46.97;101365.78;4936986;29;20051;-59
2022/05/18 07:41:36;;;;;;;2.28;1.55;;;;;;;25.12;46.35;101377.88;4937034;29;20060;-60
2022/05/18 07:44:04;;;;;;;2.00;1.27;;;;;;;25.03;46.26;101380.06;4937327;29;20079;-59
2022/05/18 07:46:33;;;;;;;1.77;1.13;;;;;;;24.92;46.47;101379.78;4937277;29;20051;-59
2022/05/18 07:49:01;;;;;;;1.70;1.42;;;;;;;24.72;46.73;101384.41;4937641;29;20395;-59
2022/05/18 07:51:29;;;;;;;1.52;1.25;;;;;;;24.45;46.78;101390.47;4936971;29;20048;-59
2022/05/18 07:53:57;;;;;;;1.05;1.00;;;;;;;24.47;47.63;101392.91;4936635;29;20082;-60
2022/05/18 07:56:26;;;;;;;1.30;1.13;;;;;;;24.31;48.01;101392.84;4936733;29;20063;-59
2022/05/18 07:58:55;;;;;;;3.47;1.10;;;;;;;24.50;46.99;101400.59;4937147;29;20051;-59
2022/05/18 08:01:22;;;;;;;1.15;1.08;;;;;;;24.27;47.53;101412.31;4936946;29;20048;-60
2022/05/18 08:03:50;;;;;;;1.40;1.00;;;;;;;24.36;48.54;101404.63;4936799;29;20052;-59
2022/05/18 08:06:19;;;;;;;1.85;1.33;;;;;;;24.42;48.31;101394.81;4937122;29;20043;-65
2022/05/18 08:08:47;;;;;;;1.05;1.02;;;;;;;24.72;46.62;101404.78;4936961;29;20048;-67
2022/05/18 08:16:49;;;;;;;1.30;1.00;;;;;;;25.49;45.95;101410.38;4936875;29;20055;-68
2022/05/18 08:19:18;;;;;;;1.83;1.45;;;;;;;25.79;45.48;101425.94;4920893;29;20052;-67
2022/05/18 08:21:47;;;;;;;0.80;0.80;;;;;;;25.75;45.17;101407.03;4936661;29;20074;-67
2022/05/18 08:24:15;;;;;;;1.27;1.17;;;;;;;25.72;43.74;101420.97;4920861;29;20047;-67
2022/05/18 08:26:43;;;;;;;2.20;1.52;;;;;;;25.62;44.43;101406.31;4937190;29;20483;-68
2022/05/18 08:29:12;;;;;;;2.40;1.65;;;;;;;25.46;45.46;101409.13;4936781;29;20055;-66
2022/05/18 08:31:48;;;;;;;1.55;1.45;;;;;;;25.54;44.98;101415.75;4921815;29;20052;-66
2022/05/18 08:34:18;;;;;;;1.65;1.00;;;;;;;25.54;45.21;101409.31;4936434;29;20377;-66
2022/05/18 08:36:46;;;;;;;1.65;1.55;;;;;;;25.50;46.22;101410.03;4937449;29;20040;-66
2022/05/18 08:39:14;;;;;;;1.40;1.30;;;;;;;25.54;45.96;101417.72;4937572;29;20565;-66
2022/05/18 08:41:49;;;;;;;1.33;1.23;;;;;;;25.66;45.79;101416.81;4935302;29;20051;-66
2022/05/18 08:44:20;;;;;;;2.78;1.52;;;;;;;25.59;45.60;101417.44;4937170;29;20058;-66
2022/05/18 08:47:16;;;;;;;1.50;1.33;;;;;;;25.88;45.38;101426.53;4934413;29;20407;-75
2022/05/18 08:49:58;;;;;;;1.67;1.40;;;;;;;26.13;44.80;101426.28;4888398;29;20048;-70
2022/05/18 08:53:02;;;;;;;1.15;1.00;;;;;;;26.41;44.17;101426.13;4888233;29;20044;-69
2022/05/18 08:55:54;;;;;;;1.48;1.30;;;;;;;26.38;43.89;101428.84;4881046;29;20522;-70
2022/05/18 08:58:30;;;;;;;2.75;1.33;;;;;;;26.48;44.54;101419.81;4904029;29;20090;-70
2022/05/18 09:01:02;;;;;;;1.35;1.25;;;;;;;26.45;44.68;101426.19;4888429;29;20091;-69
2022/05/18 09:03:42;;;;;;;1.27;1.17;;;;;;;26.32;43.39;101428.31;4887969;29;20052;-69
2022/05/18 09:06:28;;;;;;;2.83;1.38;;;;;;;26.40;43.57;101429.28;4903821;29;20526;-69
2022/05/18 09:12:05;;;;;;;1.40;1.27;;;;;;;26.65;43.14;101434.59;4903790;29;20411;-69
2022/05/18 09:14:40;;;;;;;1.95;1.35;;;;;;;26.50;43.79;101436.31;4887357;29;20048;-69
2022/05/18 09:17:30;;;;;;;1.30;1.20;;;;;;;26.44;44.45;101432.97;4888687;29;20052;-70
2022/05/18 09:20:38;;;;;;;3.75;1.42;;;;;;;26.63;44.44;101443.38;4903784;29;20051;-70
2022/05/18 09:23:25;;;;;;;3.25;1.35;;;;;;;26.80;44.55;101450.53;4828311;29;20052;-69
2022/05/18 09:26:06;;;;;;;1.83;1.20;;;;;;;26.84;44.98;101437.38;4888371;29;20063;-69
2022/05/18 09:28:49;;;;;;;1.48;1.38;;;;;;;26.81;44.66;101445.72;4885185;29;20508;-70
2022/05/18 09:31:51;;;;;;;1.50;1.40;;;;;;;26.60;45.55;101454.53;4884748;29;20063;-69
2022/05/18 09:34:57;;;;;;;1.67;1.48;;;;;;;26.44;45.75;101455.41;4884433;29;20056;-90
2022/05/18 09:37:47;;;;;;;2.33;1.45;;;;;;;26.15;46.38;101457.59;4884969;29;20056;-89
2022/05/18 09:40:26;;;;;;;2.25;1.35;;;;;;;26.49;45.10;101457.94;4884869;29;20064;-91
2022/05/18 09:43:24;;;;;;;1.25;1.15;;;;;;;26.56;44.37;101451.66;4884742;29;20492;-75
2022/05/18 09:45:55;;;;;;;3.15;1.73;;;;;;;26.54;43.64;101462.44;4900360;29;20087;-88
2022/05/18 09:48:51;;;;;;;2.80;1.42;;;;;;;26.99;43.56;101462.97;4885682;29;20384;-89
2022/05/18 09:51:22;;;;;;;4.05;1.65;;;;;;;27.07;43.88;101456.28;4884593;29;20070;-87
2022/05/18 09:53:51;;;;;;;2.50;1.25;;;;;;;27.08;43.73;101449.47;4884730;29;20052;-87
2022/05/18 09:56:26;;;;;;;5.43;1.67;;;;;;;27.00;44.15;101460.94;4884534;29;20052;-87
2022/05/18 09:58:58;;;;;;;4.00;1.83;;;;;;;27.21;43.93;101457.72;4900219;29;20063;-88
2022/05/18 10:07:34;;;;;;;2.55;1.55;;;;;;;27.51;44.37;101448.59;4899600;29;20056;-88
2022/05/18 10:10:16;;;;;;;4.18;1.98;;;;;;;27.56;44.17;101462.31;4884169;29;20063;-89
2022/05/18 10:12:53;;;;;;;3.10;2.38;;;;;;;27.08;44.55;101457.09;4899836;29;20044;-88
2022/05/18 10:15:24;;;;;;;5.70;2.35;;;;;;;26.91;44.88;101464.81;4883875;29;20530;-87
2022/05/18 10:18:29;;;;;;;2.45;2.13;;;;;;;26.59;45.64;101455.72;4884470;29;20052;-86
2022/05/18 10:21:20;;;;;;;;;;;;;;;26.76;45.23;101460.06;4808170;29;20050;-86
2022/05/18 10:24:03;;;;;;;2.00;1.90;;;;;;;26.63;46.27;101463.03;4883294;29;19931;-85
2022/05/18 10:26:40;;;;;;;4.00;2.00;;;;;;;26.55;45.93;101462.06;4901324;29;20056;-85
2022/05/18 10:29:23;;;;;;;4.25;1.70;;;;;;;26.33;45.92;101455.19;4887101;29;20051;-86
2022/05/18 10:32:22;;;;;;;2.85;2.05;;;;;;;26.47;45.80;101460.31;4902463;29;20055;-85
2022/05/18 10:34:53;;;;;;;2.00;1.88;;;;;;;26.39;45.47;101467.75;4884772;29;20052;-85
2022/05/18 10:37:30;;;;;;;2.25;1.88;;;;;;;26.36;46.30;101464.88;4883980;29;20055;-86
2022/05/18 10:40:19;;;;;;;2.33;2.15;;;;;;;26.23;46.59;101472.59;4896139;29;20394;-86
2022/05/18 10:42:50;;;;;;;2.53;1.92;;;;;;;26.20;46.48;101462.09;4890524;29;20056;-85
2022/05/18 10:45:37;;;;;;;3.47;2.78;;;;;;;26.39;47.07;101466.97;4892454;29;20059;-86
2022/05/18 10:48:13;;;;;;;2.40;2.20;;;;;;;26.28;46.94;101464.72;4902797;29;20052;-90
2022/05/18 10:50:43;;;;;;;2.20;2.00;;;;;;;26.12;47.16;101456.34;4902528;29;20044;-86
2022/05/18 10:53:15;;;;;;;2.55;2.20;;;;;;;26.16;48.30;101460.00;4902436;29;20059;-86
2022/05/18 10:55:58;;;;;;;4.05;2.45;;;;;;;26.14;48.48;101456.78;4901941;29;20074;-87
2022/05/18 10:59:08;;;;;;;3.97;2.30;;;;;;;26.07;48.84;101453.81;4888972;29;20054;-86
2022/05/18 11:01:49;;;;;;;3.67;2.28;;;;;;;25.93;49.49;101447.84;4887017;29;20059;-88
2022/05/18 11:04:51;;;;;;;2.67;2.20;;;;;;;26.26;48.36;101458.69;4886535;29;20051;-88
2022/05/18 11:07:24;;;;;;;2.67;2.47;;;;;;;26.51;48.37;101449.97;4886663;29;20055;-87
2022/05/18 11:09:53;;;;;;;2.43;2.13;;;;;;;26.42;48.46;101444.59;4902240;29;20051;-86
2022/05/18 11:12:31;;;;;;;3.55;2.20;;;;;;;26.67;47.88;101458.31;4886718;29;20052;-87
2022/05/18 11:15:23;;;;;;;2.85;2.55;;;;;;;26.66;48.46;101450.25;4886764;29;20064;-88
2022/05/18 11:18:15;;;;;;;3.38;2.30;;;;;;;26.62;48.26;101443.75;4886117;29;20051;-88
2022/05/18 11:21:12;;;;;;;2.53;2.28;;;;;;;26.91;47.58;101444.31;4886819;29;20063;-88
2022/05/18 11:24:12;;;;;;;3.10;2.28;;;;;;;27.03;47.77;101435.72;4886270;29;20064;-88
2022/05/18 11:27:00;;;;;;;4.55;2.20;;;;;;;27.48;46.12;101441.72;4898532;29;20056;-88
2022/05/18 11:29:57;;;;;;;2.25;1.75;;;;;;;27.69;44.80;101446.09;4883188;29;20056;-87
2022/05/18 11:32:39;;;;;;;2.97;2.10;;;;;;;27.87;44.65;101437.13;4883037;29;20488;-89
2022/05/18 11:35:34;;;;;;;2.38;2.13;;;;;;;27.42;46.03;101453.66;4883046;29;20056;-89
2022/05/18 11:38:27;;;;;;;1.90;1.70;;;;;;;27.65;45.48;101447.25;4882931;29;20067;-89
2022/05/18 11:40:58;;;;;;;2.27;2.07;;;;;;;28.07;46.81;101451.88;4898386;29;20452;-86
2022/05/18 11:43:57;;;;;;;3.05;2.30;;;;;;;28.06;45.02;101430.56;4883011;29;20059;-86
2022/05/18 11:46:52;;;;;;;1.90;1.80;;;;;;;28.37;43.69;101445.47;4913857;29;20048;-85
2022/05/18 11:49:23;;;;;;;5.85;2.10;;;;;;;28.34;44.16;101429.34;4883452;29;20056;-87
2022/05/18 11:52:12;;;;;;;2.53;1.75;;;;;;;27.83;44.27;101430.63;4882962;29;20052;-86
2022/05/18 11:54:48;;;;;;;2.40;2.15;;;;;;;27.68;45.09;101446.47;4882787;29;20056;-86
2022/05/18 11:57:45;;;;;;;2.25;2.08;;;;;;;27.75;44.10;101441.78;4887044;29;20504;-86
2022/05/18 12:00:45;;;;;;;3.03;1.98;;;;;;;27.76;45.03;101443.38;4873149;29;20389;-89
2022/05/18 12:03:38;;;;;;;2.78;2.35;;;;;;;27.71;43.90;101451.34;4879660;29;20053;-87
2022/05/18 12:06:12;;;;;;;2.03;1.83;;;;;;;27.65;44.07;101428.34;4870760;29;20060;-86
2022/05/18 12:08:40;;;;;;;3.67;1.90;;;;;;;27.99;43.43;101433.25;4891265;29;20059;-85
2022/05/18 12:11:27;;;;;;;2.15;2.00;;;;;;;28.10;43.00;101439.84;4882527;29;20056;-86
2022/05/18 12:13:58;;;;;;;3.63;1.92;;;;;;;28.32;42.34;101426.09;4886637;29;20052;-85
2022/05/18 12:16:31;;;;;;;2.20;2.00;;;;;;;28.41;41.82;101440.69;4882680;29;20068;-85
2022/05/18 12:19:08;;;;;;;2.83;1.63;;;;;;;27.87;43.20;101437.13;4872462;29;20051;-86
2022/05/18 12:21:50;;;;;;;2.88;2.08;;;;;;;28.15;42.69;101419.81;4896684;29;20412;-86